Bloomfield, South Dakota
Current Conditions -  °F | °C
As of 4:55 PM on Tuesday 21 Oct 2014 (Local Time) from KHON Reporting Station
Clear Clear  
Wind Chill: 80°   Ceiling: Unl
Heat Index: 80°   Visibility: 10mi
Dew Point: 39°   Wind: 13mph
Humidity: 23%   Direction: 170°S
Pressure: 29.85"   Gusts: 24mph
Location:  44.6749°N, 97.9169°W
Report Text: KHON 212155Z AUTO 17011G21KT 10SM CLR 27/04 A2985 RMK AO2 PK WND 16026/2100 SLP104 T02670039
Loading
Personal Weather Stations






























Interactive Weather Map
Tropical Storm Tracking
New forecast layout! Learn more

10-Day Weather Forecast

Advertisements
Track Severe Weather on mobile